createdAt,value
2019-03-17T00:00:51.327Z,6.00
2019-03-17T00:03:22.473Z,6.00
2019-03-17T00:06:08.346Z,6.00
2019-03-17T00:08:54.932Z,6.00
2019-03-17T00:11:39.306Z,6.00
2019-03-17T00:14:25.781Z,6.00
2019-03-17T00:17:11.998Z,6.00
2019-03-17T00:19:58.217Z,6.00
2019-03-17T00:22:43.436Z,6.00
2019-03-17T00:28:17.286Z,6.00
2019-03-17T00:31:02.476Z,5.90
2019-03-17T00:33:49.009Z,5.90
2019-03-17T00:36:35.194Z,5.90
2019-03-17T00:39:20.191Z,5.80
2019-03-17T00:42:05.980Z,5.70
2019-03-17T00:44:50.472Z,5.70
2019-03-17T00:47:36.241Z,5.60
2019-03-17T00:50:23.438Z,5.50
2019-03-17T00:53:10.790Z,5.40
2019-03-17T00:55:56.928Z,5.30
2019-03-17T01:01:26.108Z,5.10
2019-03-17T01:04:06.923Z,5.00
2019-03-17T01:06:48.052Z,4.90
2019-03-17T01:09:29.095Z,4.80
2019-03-17T01:12:10.281Z,4.70
2019-03-17T01:14:50.985Z,4.70
2019-03-17T01:17:31.855Z,4.60
2019-03-17T01:20:12.617Z,4.60
2019-03-17T01:22:53.929Z,4.60
2019-03-17T01:28:24.467Z,4.50
2019-03-17T01:33:54.902Z,4.50
2019-03-17T01:36:35.771Z,4.60
2019-03-17T01:39:16.784Z,4.60
2019-03-17T01:44:46.962Z,4.40
2019-03-17T01:47:27.854Z,4.30
2019-03-17T01:50:08.583Z,4.20
2019-03-17T01:52:48.900Z,4.20
2019-03-17T01:55:29.693Z,4.10
2019-03-17T02:00:55.719Z,3.90
2019-03-17T02:06:25.930Z,3.90
2019-03-17T02:11:55.375Z,3.80
2019-03-17T02:17:26.782Z,3.90
2019-03-17T02:22:57.456Z,3.90
2019-03-17T02:28:27.457Z,4.30
2019-03-17T02:33:57.372Z,4.60
2019-03-17T02:39:26.135Z,4.80
2019-03-17T02:42:05.648Z,4.90
2019-03-17T02:44:48.139Z,5.00
2019-03-17T02:47:28.880Z,5.10
2019-03-17T02:50:11.057Z,5.00
2019-03-17T02:52:52.006Z,5.10
2019-03-17T02:55:32.993Z,5.10
2019-03-17T03:03:44.290Z,5.30
2019-03-17T03:06:24.974Z,5.40
2019-03-17T03:09:06.130Z,5.50
2019-03-17T03:11:47.581Z,5.60
2019-03-17T03:14:28.646Z,5.60
2019-03-17T03:17:09.175Z,5.60
2019-03-17T03:19:49.934Z,5.70
2019-03-17T03:22:30.884Z,5.80
2019-03-17T03:25:11.695Z,5.90
2019-03-17T03:27:52.829Z,6.00
2019-03-17T03:30:33.525Z,6.10
2019-03-17T03:33:14.331Z,6.10
2019-03-17T03:36:09.828Z,6.10
2019-03-17T03:38:37.620Z,6.20
2019-03-17T03:41:18.467Z,6.20
2019-03-17T03:43:59.471Z,6.20
2019-03-17T03:46:40.520Z,6.30
2019-03-17T03:49:21.293Z,6.40
2019-03-17T03:52:02.023Z,6.50
2019-03-17T04:13:16.176Z,7.00
2019-03-17T10:00:04.691Z,14.30
2019-03-17T10:15:10.991Z,14.50
2019-03-17T12:53:59.021Z,15.50
2019-03-17T12:56:39.277Z,15.50
2019-03-17T12:59:19.073Z,15.40
2019-03-17T13:01:59.498Z,15.30
2019-03-17T13:04:39.713Z,15.20
2019-03-17T13:07:19.809Z,15.00
2019-03-17T13:09:59.732Z,14.80
2019-03-17T13:12:39.191Z,14.70
2019-03-17T13:15:18.998Z,14.50
2019-03-17T13:17:59.339Z,14.40
2019-03-17T13:20:39.424Z,14.40
2019-03-17T13:23:19.854Z,14.40
2019-03-17T13:26:00.284Z,14.40
2019-03-17T13:28:40.626Z,14.40
2019-03-17T13:31:20.757Z,14.40
2019-03-17T13:34:00.852Z,14.50
2019-03-17T13:36:40.594Z,14.50
2019-03-17T13:39:20.856Z,14.40
2019-03-17T13:42:00.776Z,14.30
2019-03-17T13:44:41.113Z,14.40
2019-03-17T13:47:21.671Z,14.40
2019-03-17T13:50:01.536Z,14.40
2019-03-17T13:52:41.921Z,14.60
2019-03-17T13:55:22.624Z,14.90
2019-03-17T13:58:02.887Z,15.20
2019-03-17T14:00:42.939Z,15.40
2019-03-17T14:03:23.294Z,15.60
2019-03-17T14:06:03.759Z,15.50
2019-03-17T14:08:44.169Z,15.20
2019-03-17T14:11:25.802Z,14.80
2019-03-17T14:14:05.461Z,14.50
2019-03-17T14:16:45.922Z,14.20
2019-03-17T14:19:25.418Z,14.20
2019-03-17T14:22:05.512Z,14.30
2019-03-17T14:24:46.185Z,14.50
2019-03-17T14:27:27.175Z,14.80
2019-03-17T14:32:47.657Z,14.70
2019-03-17T14:38:12.532Z,14.90
2019-03-17T14:40:53.869Z,14.70
2019-03-17T14:43:34.547Z,14.50
2019-03-17T14:46:14.859Z,14.30
2019-03-17T14:48:54.970Z,14.00
2019-03-17T14:51:34.324Z,13.80
2019-03-17T14:54:14.719Z,13.60
2019-03-17T14:56:54.998Z,13.50
2019-03-17T14:59:35.468Z,13.40
2019-03-17T15:02:15.834Z,13.30
2019-03-17T15:04:55.983Z,13.10
2019-03-17T15:07:36.404Z,13.00
2019-03-17T15:10:16.626Z,12.90
2019-03-17T15:12:57.074Z,12.80
2019-03-17T15:15:37.364Z,12.60
2019-03-17T15:18:17.408Z,12.40
2019-03-17T15:20:58.076Z,12.20
2019-03-17T15:23:38.635Z,11.90
2019-03-17T15:26:18.526Z,11.60
2019-03-17T15:28:58.399Z,11.30
2019-03-17T15:31:38.995Z,10.80
2019-03-17T15:34:18.850Z,10.30
2019-03-17T15:36:59.185Z,9.50
2019-03-17T15:39:39.041Z,8.90
2019-03-17T15:42:19.777Z,8.30
2019-03-17T15:45:00.053Z,7.80
2019-03-17T15:47:40.209Z,7.40
2019-03-17T15:50:20.449Z,7.00
2019-03-17T15:53:01.111Z,6.70
2019-03-17T15:55:41.283Z,6.50
2019-03-17T15:58:22.724Z,6.30
2019-03-17T16:03:55.136Z,6.00
2019-03-17T16:09:28.337Z,5.70
2019-03-17T16:12:07.050Z,5.50
2019-03-17T16:14:48.169Z,5.40
2019-03-17T16:17:28.890Z,5.30
2019-03-17T16:20:09.863Z,5.20
2019-03-17T16:22:50.747Z,5.10
2019-03-17T16:25:32.867Z,5.00
2019-03-17T16:30:58.448Z,5.00
2019-03-17T16:36:24.384Z,4.90
2019-03-17T16:41:49.108Z,4.80
2019-03-17T16:53:09.540Z,4.50
2019-03-17T17:05:14.090Z,4.20
2019-03-17T17:16:46.441Z,4.20
2019-03-17T17:25:37.575Z,4.30
2019-03-17T17:28:18.150Z,4.40
2019-03-17T17:30:58.450Z,4.40
2019-03-17T17:33:39.603Z,4.40
2019-03-17T17:36:20.634Z,4.40
2019-03-17T17:39:00.467Z,4.50
2019-03-17T17:41:41.075Z,4.50
2019-03-17T17:44:21.301Z,4.50
2019-03-17T17:47:02.394Z,4.60
2019-03-17T17:49:43.351Z,4.50
2019-03-17T17:52:24.142Z,4.50
2019-03-17T17:55:04.646Z,4.60
2019-03-17T17:57:45.207Z,4.50
2019-03-17T18:00:25.659Z,4.50
2019-03-17T18:03:05.583Z,4.50
2019-03-17T18:05:46.411Z,4.50
2019-03-17T18:08:27.939Z,4.50
2019-03-17T18:11:08.009Z,4.40
2019-03-17T18:13:47.888Z,4.40
2019-03-17T18:16:28.451Z,4.40
2019-03-17T18:19:08.434Z,4.40
2019-03-17T18:21:48.684Z,4.40
2019-03-17T18:24:28.515Z,4.40
2019-03-17T18:27:09.458Z,4.40
2019-03-17T18:29:50.252Z,4.30
2019-03-17T18:32:30.365Z,4.30
2019-03-17T18:35:10.862Z,4.40
2019-03-17T18:37:51.436Z,4.40
2019-03-17T18:40:34.359Z,4.30
2019-03-17T18:43:14.949Z,4.30
2019-03-17T18:45:55.597Z,4.40
2019-03-17T18:48:37.270Z,4.30
2019-03-17T18:51:18.500Z,4.30
2019-03-17T18:56:44.324Z,4.30
2019-03-17T18:59:25.297Z,4.30
2019-03-17T19:02:07.088Z,4.30
2019-03-17T19:07:31.391Z,4.30
2019-03-17T19:10:12.033Z,4.30
2019-03-17T19:12:52.462Z,4.20
2019-03-17T19:18:17.178Z,4.20
2019-03-17T19:23:46.696Z,4.10
2019-03-17T19:29:16.406Z,4.10
2019-03-17T19:31:58.092Z,4.00
2019-03-17T19:34:39.885Z,4.00
2019-03-17T19:40:01.382Z,4.00
2019-03-17T19:45:27.619Z,4.00
2019-03-17T19:48:09.875Z,4.00
2019-03-17T19:50:51.725Z,4.00
2019-03-17T19:53:33.328Z,4.00
2019-03-17T19:56:15.086Z,4.00
2019-03-17T19:58:55.330Z,4.00
2019-03-17T20:01:36.680Z,4.00
2019-03-17T20:09:50.538Z,4.20
2019-03-17T20:12:30.689Z,4.10
2019-03-17T20:15:11.730Z,4.10
2019-03-17T20:17:52.002Z,4.00
2019-03-17T20:20:34.359Z,4.00
2019-03-17T20:23:15.618Z,4.00
2019-03-17T20:25:56.829Z,4.00
2019-03-17T20:28:37.636Z,4.00
2019-03-17T20:31:18.333Z,4.00
2019-03-17T20:43:34.281Z,3.90
2019-03-17T21:09:45.412Z,3.90
2019-03-17T21:12:25.779Z,4.00
2019-03-17T21:15:06.004Z,4.00
2019-03-17T21:17:46.626Z,4.00
2019-03-17T21:20:27.095Z,4.00
2019-03-17T21:23:07.577Z,4.00
2019-03-17T21:25:48.022Z,4.00
2019-03-17T21:31:11.455Z,4.00
2019-03-17T21:33:52.046Z,4.00
2019-03-17T22:40:53.676Z,3.80
2019-03-17T22:43:34.552Z,3.80
2019-03-17T22:46:15.498Z,3.80
2019-03-17T22:52:08.568Z,3.80
2019-03-17T23:00:39.232Z,3.70
2019-03-17T23:03:24.093Z,3.60
2019-03-17T23:06:16.765Z,3.50
2019-03-17T23:18:23.428Z,3.40
2019-03-17T23:24:19.991Z,3.30
2019-03-17T23:32:29.766Z,3.30
2019-03-17T23:35:10.725Z,3.30
2019-03-17T23:44:07.424Z,3.30
2019-03-17T23:46:48.513Z,3.30
2019-03-17T23:52:13.152Z,3.30
2019-03-17T23:58:07.538Z,3.30
